Time;durP1;ratioP1;P1;durP2;ratioP2;P2;SDS_P1;SDS_P2;PMS_P1;PMS_P2;Temp;Humidity;BMP_temperature;BMP_pressure;BME280_temperature;BME280_humidity;BME280_pressure;Samples;Min_cycle;Max_cycle;Signal;HPM_P1;HPM_P2
2022/06/17 00:00:41;;;;;;;9.05;5.20;;;461.50;2380.80;;;;;;5086923;28;20017;-73
2022/06/17 00:03:07;;;;;;;15.45;5.28;;;461.50;2380.80;;;;;;5080814;28;20115;-73
2022/06/17 00:05:33;;;;;;;9.45;5.25;;;461.60;2380.80;;;;;;5089968;28;20024;-74
2022/06/17 00:07:58;;;;;;;8.48;5.22;;;461.60;2380.80;;;;;;5071567;28;20021;-73
2022/06/17 00:10:26;;;;;;;7.82;5.20;;;461.70;2380.80;;;;;;5071632;28;20074;-73
2022/06/17 00:12:53;;;;;;;7.53;5.05;;;461.60;2380.80;;;;;;5071124;28;20067;-73
2022/06/17 00:15:19;;;;;;;8.95;5.95;;;461.60;2380.80;;;;;;5071816;28;20029;-73
2022/06/17 00:17:58;;;;;;;8.68;5.20;;;461.70;2380.80;;;;;;5071207;28;20020;-74
2022/06/17 00:20:24;;;;;;;7.85;3.97;;;461.70;2380.80;;;;;;5071787;28;20059;-74
2022/06/17 00:22:50;;;;;;;10.75;5.55;;;461.60;2380.80;;;;;;5071397;28;20033;-74
2022/06/17 00:25:40;;;;;;;6.18;4.88;;;461.70;2380.80;;;;;;5071309;28;20029;-74
2022/06/17 00:28:12;;;;;;;15.48;7.60;;;461.70;2380.80;;;;;;5071003;28;20050;-75
2022/06/17 00:30:37;;;;;;;10.73;6.97;;;461.70;2380.80;;;;;;5071328;28;20024;-74
2022/06/17 00:33:04;;;;;;;9.50;5.28;;;486.40;2380.80;;;;;;5071042;28;20013;-74
2022/06/17 00:35:33;;;;;;;10.05;5.20;;;486.40;2380.80;;;;;;5069925;28;20139;-74
2022/06/17 00:38:00;;;;;;;9.35;5.07;;;486.50;2380.80;;;;;;5071175;28;20040;-74
2022/06/17 00:40:28;;;;;;;9.35;6.00;;;486.50;2380.80;;;;;;5078447;28;20020;-74
2022/06/17 00:42:54;;;;;;;7.25;5.32;;;486.50;2380.80;;;;;;5076118;28;20035;-73
2022/06/17 00:46:19;;;;;;;9.55;5.40;;;486.40;2380.80;;;;;;5070843;28;20025;-73
2022/06/17 00:49:01;;;;;;;10.00;5.93;;;486.50;2380.80;;;;;;5048387;28;20025;-74
2022/06/17 00:51:32;;;;;;;10.60;6.63;;;486.50;2380.80;;;;;;5048412;28;20056;-73
2022/06/17 00:54:04;;;;;;;11.35;6.00;;;486.40;2380.80;;;;;;5046244;28;20279;-73
2022/06/17 00:56:33;;;;;;;13.75;6.05;;;486.40;2380.80;;;;;;5069945;28;20024;-73
2022/06/17 00:58:59;;;;;;;10.48;7.35;;;486.40;2380.80;;;;;;5062608;28;20045;-73
2022/06/17 01:01:27;;;;;;;9.23;5.70;;;486.40;2380.80;;;;;;5095079;28;20389;-73
2022/06/17 01:03:58;;;;;;;10.57;6.93;;;461.70;2380.80;;;;;;5080237;28;20472;-73
2022/06/17 01:06:30;;;;;;;14.13;8.43;;;461.70;2380.80;;;;;;5074234;28;20028;-73
2022/06/17 01:11:55;;;;;;;11.60;7.93;;;461.50;2380.80;;;;;;5072855;28;20035;-74
2022/06/17 01:14:21;;;;;;;13.15;7.22;;;461.50;2380.80;;;;;;5072064;28;20047;-73
2022/06/17 01:16:48;;;;;;;11.18;7.53;;;461.40;2380.80;;;;;;5076831;28;20052;-74
2022/06/17 01:19:38;;;;;;;11.80;8.20;;;461.40;2380.80;;;;;;5073742;28;20037;-74
2022/06/17 01:22:26;;;;;;;18.77;9.88;;;461.40;2380.80;;;;;;5085776;28;20468;-74
2022/06/17 01:24:57;;;;;;;16.35;7.40;;;461.40;2380.80;;;;;;5087735;28;20116;-74
2022/06/17 01:27:27;;;;;;;12.18;7.15;;;461.40;2380.80;;;;;;5071307;28;20058;-75
2022/06/17 01:29:53;;;;;;;14.25;9.32;;;461.40;2380.80;;;;;;5074158;28;20070;-74
2022/06/17 01:32:23;;;;;;;20.65;12.10;;;461.40;2380.80;;;;;;5079142;28;20021;-74
2022/06/17 01:34:49;;;;;;;14.35;10.43;;;461.30;2380.80;;;;;;5072188;28;20031;-74
2022/06/17 01:37:16;;;;;;;12.98;8.15;;;461.10;2380.80;;;;;;5075113;28;20040;-74
2022/06/17 01:39:42;;;;;;;21.10;11.13;;;435.80;2355.20;;;;;;5075628;28;20024;-74
2022/06/17 01:42:09;;;;;;;17.17;13.15;;;435.60;2355.20;;;;;;5073472;28;20535;-74
2022/06/17 01:44:39;;;;;;;14.93;11.10;;;435.70;2355.20;;;;;;5076568;28;20090;-74
2022/06/17 01:47:18;;;;;;;11.38;8.45;;;436.00;2355.20;;;;;;5076202;28;20025;-74
2022/06/17 01:49:50;;;;;;;13.10;7.63;;;436.10;2355.20;;;;;;5071397;28;20463;-74
2022/06/17 01:52:32;;;;;;;12.05;7.70;;;460.80;2380.80;;;;;;5073341;28;20052;-74
2022/06/17 01:55:07;;;;;;;16.75;8.98;;;460.90;2380.80;;;;;;5071854;28;20055;-74
2022/06/17 01:57:39;;;;;;;11.23;7.30;;;460.90;2380.80;;;;;;5073075;28;20025;-73
2022/06/17 02:00:21;;;;;;;13.98;7.15;;;460.90;2380.80;;;;;;5069913;28;20039;-74
2022/06/17 02:02:51;;;;;;;12.07;8.00;;;460.90;2380.80;;;;;;5072789;28;20032;-74
2022/06/17 02:05:19;;;;;;;19.45;8.20;;;461.00;2380.80;;;;;;5075854;28;20017;-75
2022/06/17 02:07:58;;;;;;;17.45;8.68;;;461.00;2380.80;;;;;;5078935;28;20092;-73
2022/06/17 02:10:31;;;;;;;11.52;7.68;;;460.90;2380.80;;;;;;5075768;28;20016;-74
2022/06/17 02:12:58;;;;;;;18.52;11.75;;;460.90;2380.80;;;;;;5073062;28;20027;-74
2022/06/17 02:15:24;;;;;;;9.05;7.63;;;436.10;2355.20;;;;;;5073011;28;20511;-74
2022/06/17 02:17:51;;;;;;;17.95;12.88;;;460.80;2380.80;;;;;;5072820;28;20025;-74
2022/06/17 02:20:18;;;;;;;12.63;6.93;;;435.80;2355.20;;;;;;5072444;28;20020;-74
2022/06/17 02:22:45;;;;;;;17.02;10.45;;;435.30;2355.20;;;;;;5072703;28;20020;-73
2022/06/17 02:25:23;;;;;;;25.60;16.65;;;410.50;2355.20;;;;;;5072226;28;20020;-73
2022/06/17 02:27:54;;;;;;;18.92;8.73;;;410.40;2355.20;;;;;;5075679;28;20519;-74
2022/06/17 02:30:20;;;;;;;16.55;10.45;;;410.40;2355.20;;;;;;5072518;28;20435;-73
2022/06/17 02:32:47;;;;;;;15.55;10.55;;;410.50;2355.20;;;;;;5072263;28;20031;-73
2022/06/17 02:35:31;;;;;;;22.33;9.00;;;410.40;2355.20;;;;;;5071024;28;20028;-73
2022/06/17 02:37:57;;;;;;;14.73;9.70;;;410.30;2355.20;;;;;;5071914;28;20043;-74
2022/06/17 02:40:26;;;;;;;14.38;9.05;;;410.20;2355.20;;;;;;5073505;28;20012;-74
2022/06/17 02:42:52;;;;;;;10.88;8.80;;;410.40;2355.20;;;;;;5069676;28;20024;-74
2022/06/17 02:45:23;;;;;;;11.10;8.38;;;435.20;2355.20;;;;;;5072326;28;20043;-73
2022/06/17 02:47:50;;;;;;;9.82;7.90;;;435.40;2355.20;;;;;;5071917;28;20016;-73
2022/06/17 02:50:22;;;;;;;12.02;7.22;;;435.70;2355.20;;;;;;5072196;28;20021;-74
2022/06/17 02:52:49;;;;;;;9.35;7.07;;;435.90;2355.20;;;;;;5072103;28;20020;-74
2022/06/17 02:55:18;;;;;;;10.68;7.82;;;436.00;2355.20;;;;;;5072042;28;20048;-74
2022/06/17 02:57:47;;;;;;;13.80;8.07;;;460.80;2380.80;;;;;;5072229;28;20028;-74
2022/06/17 03:00:21;;;;;;;13.65;6.97;;;436.10;2355.20;;;;;;5071984;28;20055;-74
2022/06/17 03:03:14;;;;;;;10.02;7.60;;;460.80;2380.80;;;;;;5074681;28;20024;-76
2022/06/17 03:05:43;;;;;;;10.82;7.28;;;460.90;2380.80;;;;;;5072768;28;20119;-74
2022/06/17 03:08:24;;;;;;;12.15;7.07;;;461.00;2380.80;;;;;;5071536;28;20021;-74
2022/06/17 03:10:53;;;;;;;10.63;8.00;;;461.00;2380.80;;;;;;5070564;28;20031;-74
2022/06/17 03:13:43;;;;;;;10.15;7.68;;;461.00;2380.80;;;;;;5074383;28;20024;-74
2022/06/17 03:16:12;;;;;;;11.15;7.40;;;461.00;2380.80;;;;;;5071490;28;20024;-76
2022/06/17 03:18:39;;;;;;;25.77;15.15;;;461.00;2380.80;;;;;;5070608;28;20087;-74
2022/06/17 03:21:06;;;;;;;25.42;19.08;;;461.00;2380.80;;;;;;5077093;28;20027;-74
2022/06/17 03:24:16;;;;;;;37.13;21.90;;;461.10;2380.80;;;;;;5088932;28;20024;-74
2022/06/17 03:27:01;;;;;;;27.13;19.40;;;461.20;2380.80;;;;;;5062852;28;20041;-73
2022/06/17 03:29:28;;;;;;;28.67;21.63;;;461.20;2380.80;;;;;;5072839;28;20025;-74
2022/06/17 03:32:01;;;;;;;18.92;14.65;;;461.40;2380.80;;;;;;5074255;28;20111;-74
2022/06/17 03:34:33;;;;;;;;;;;461.40;2380.80;;;;;;5073272;28;20056;-75
2022/06/17 03:37:39;;;;;;;21.65;9.57;;;461.40;2380.80;;;;;;5071410;28;20366;-74
2022/06/17 03:40:20;;;;;;;19.73;10.63;;;461.30;2380.80;;;;;;5071108;28;20039;-74
2022/06/17 03:42:59;;;;;;;26.95;14.23;;;461.40;2380.80;;;;;;5069229;28;20103;-74
2022/06/17 03:45:32;;;;;;;22.50;12.85;;;461.50;2380.80;;;;;;5068950;28;20027;-74
2022/06/17 03:48:16;;;;;;;15.93;11.30;;;461.50;2380.80;;;;;;5071393;28;20046;-75
2022/06/17 03:50:45;;;;;;;18.42;10.85;;;461.50;2380.80;;;;;;5086113;28;20097;-74
2022/06/17 03:53:27;;;;;;;15.45;9.50;;;461.60;2380.80;;;;;;5085620;28;20059;-74
2022/06/17 03:55:56;;;;;;;20.27;15.38;;;461.60;2380.80;;;;;;5087581;28;20028;-73
2022/06/17 03:58:23;;;;;;;33.70;19.63;;;461.60;2380.80;;;;;;5074455;28;20127;-73
2022/06/17 04:01:01;;;;;;;26.20;15.88;;;486.40;2380.80;;;;;;5071591;28;20055;-74
2022/06/17 04:03:32;;;;;;;18.98;13.07;;;486.40;2380.80;;;;;;5070856;28;20475;-74
2022/06/17 04:06:12;;;;;;;29.00;19.05;;;486.40;2380.80;;;;;;5069967;28;20047;-74
2022/06/17 04:09:17;;;;;;;20.48;11.20;;;461.70;2380.80;;;;;;5072309;28;20027;-74
2022/06/17 04:11:51;;;;;;;21.00;9.23;;;461.70;2380.80;;;;;;5059093;28;20040;-73
2022/06/17 04:14:34;;;;;;;64.22;37.20;;;461.50;2380.80;;;;;;5064283;28;20460;-75
2022/06/17 04:17:16;;;;;;;29.13;20.17;;;461.70;2380.80;;;;;;5078861;28;20570;-74
2022/06/17 04:19:45;;;;;;;31.27;20.60;;;461.70;2380.80;;;;;;5088267;28;20033;-73
2022/06/17 04:22:25;;;;;;;30.73;15.38;;;486.40;2380.80;;;;;;5080776;28;20116;-73
2022/06/17 04:24:57;;;;;;;19.63;12.48;;;486.50;2380.80;;;;;;5072385;28;20460;-73
2022/06/17 04:27:24;;;;;;;19.25;9.90;;;486.60;2380.80;;;;;;5070576;28;20024;-73
2022/06/17 04:29:54;;;;;;;23.52;11.85;;;486.70;2380.80;;;;;;5069735;28;20078;-74
2022/06/17 04:32:31;;;;;;;20.38;10.15;;;486.70;2380.80;;;;;;5071125;28;20035;-73
2022/06/17 04:34:56;;;;;;;18.95;9.13;;;486.40;2380.80;;;;;;5078826;28;20089;-73
2022/06/17 04:37:23;;;;;;;18.52;8.85;;;461.70;2380.80;;;;;;5084723;28;20403;-73
2022/06/17 04:39:59;;;;;;;16.08;9.48;;;486.40;2380.80;;;;;;5076236;28;20127;-74
2022/06/17 04:42:33;;;;;;;14.10;8.32;;;486.70;2380.80;;;;;;5085304;28;20024;-73
2022/06/17 04:44:59;;;;;;;11.65;7.28;;;486.80;2380.80;;;;;;5073981;28;20031;-74
2022/06/17 04:47:24;;;;;;;18.15;8.63;;;486.80;2380.80;;;;;;5083987;28;20024;-73
2022/06/17 04:50:01;;;;;;;18.58;8.73;;;487.00;2380.80;;;;;;5079909;28;20032;-74
2022/06/17 04:52:36;;;;;;;17.00;8.70;;;487.00;2380.80;;;;;;5081605;28;20052;-74
2022/06/17 04:55:06;;;;;;;16.67;7.60;;;487.00;2380.80;;;;;;5077340;28;20445;-74
2022/06/17 04:57:32;;;;;;;13.02;5.85;;;487.00;2380.80;;;;;;5074166;28;20525;-75
2022/06/17 05:00:01;;;;;;;15.00;6.32;;;486.80;2380.80;;;;;;5088692;28;20501;-74
2022/06/17 05:02:32;;;;;;;15.00;9.50;;;486.80;2380.80;;;;;;5080619;28;20417;-74
2022/06/17 05:05:02;;;;;;;11.35;6.15;;;486.80;2380.80;;;;;;5081450;28;20487;-75
2022/06/17 05:07:32;;;;;;;13.18;7.72;;;486.70;2380.80;;;;;;5074668;28;20099;-74
2022/06/17 05:10:04;;;;;;;15.38;9.13;;;486.70;2380.80;;;;;;5074449;28;20081;-74
2022/06/17 05:12:33;;;;;;;13.70;8.77;;;486.70;2380.80;;;;;;5073210;28;20423;-74
2022/06/17 05:15:02;;;;;;;16.05;8.75;;;486.50;2380.80;;;;;;5088224;28;20031;-75
2022/06/17 05:17:28;;;;;;;13.38;8.57;;;486.70;2380.80;;;;;;5081596;28;20020;-76
2022/06/17 05:19:53;;;;;;;8.60;6.85;;;486.70;2380.80;;;;;;5072988;28;20041;-74
2022/06/17 05:22:36;;;;;;;14.63;8.85;;;486.70;2380.80;;;;;;5076318;28;20027;-75
2022/06/17 05:25:06;;;;;;;19.85;15.07;;;486.80;2380.80;;;;;;5087947;28;20033;-75
2022/06/17 05:27:32;;;;;;;18.77;16.20;;;486.90;2380.80;;;;;;5072153;28;20035;-75
2022/06/17 05:29:58;;;;;;;20.88;13.68;;;487.10;2380.80;;;;;;5074988;28;20029;-75
2022/06/17 05:32:24;;;;;;;17.90;11.43;;;487.20;2380.80;;;;;;5075919;28;20478;-77
2022/06/17 05:34:50;;;;;;;16.52;6.75;;;512.00;2380.80;;;;;;5073346;28;20047;-75
2022/06/17 05:37:16;;;;;;;18.67;11.43;;;512.20;2380.80;;;;;;5074595;28;20506;-76
2022/06/17 05:39:42;;;;;;;15.45;7.43;;;512.40;2380.80;;;;;;5072272;28;20525;-76
2022/06/17 05:42:10;;;;;;;15.18;7.47;;;512.50;2380.80;;;;;;5074357;28;20020;-76
2022/06/17 05:44:36;;;;;;;21.50;11.23;;;512.80;2380.80;;;;;;5082872;28;20103;-73
2022/06/17 05:47:01;;;;;;;20.23;9.30;;;537.60;2406.40;;;;;;5071990;28;20166;-76
2022/06/17 05:49:29;;;;;;;16.05;8.98;;;537.80;2406.40;;;;;;5073883;28;20032;-76
2022/06/17 05:51:55;;;;;;;13.18;8.57;;;537.90;2355.20;;;;;;5072012;28;20028;-76
2022/06/17 05:54:21;;;;;;;16.92;7.47;;;538.00;2329.60;;;;;;5075781;28;20379;-75
2022/06/17 05:56:46;;;;;;;17.80;8.27;;;538.00;2304.00;;;;;;5086213;28;20024;-76
2022/06/17 05:59:12;;;;;;;11.73;6.57;;;537.90;2329.60;;;;;;5085532;28;20039;-75
2022/06/17 06:01:38;;;;;;;13.90;8.55;;;537.90;2380.80;;;;;;5078537;28;20028;-75
2022/06/17 06:04:04;;;;;;;18.38;7.78;;;537.80;2406.40;;;;;;5074560;28;20024;-75
2022/06/17 06:06:30;;;;;;;11.27;6.35;;;537.90;2406.40;;;;;;5075979;28;20048;-75
2022/06/17 06:08:56;;;;;;;12.45;7.55;;;537.90;2406.40;;;;;;5082902;28;20024;-76
2022/06/17 06:11:21;;;;;;;22.30;6.75;;;537.80;2406.40;;;;;;5076719;28;20048;-75
2022/06/17 06:13:47;;;;;;;18.60;7.07;;;537.80;2406.40;;;;;;5087093;28;20067;-76
2022/06/17 06:16:15;;;;;;;16.33;8.02;;;537.80;2406.40;;;;;;5090271;28;20792;-75
2022/06/17 06:18:41;;;;;;;16.52;9.45;;;537.70;2406.40;;;;;;5085591;28;20024;-76
2022/06/17 06:21:08;;;;;;;17.27;8.68;;;512.90;2380.80;;;;;;5076858;28;20463;-75
2022/06/17 06:23:35;;;;;;;12.77;7.45;;;512.80;2380.80;;;;;;5075562;28;20482;-75
2022/06/17 06:26:02;;;;;;;12.65;7.97;;;512.70;2380.80;;;;;;5073905;28;20020;-76
2022/06/17 06:28:28;;;;;;;14.38;8.93;;;512.50;2380.80;;;;;;5072374;28;20146;-75
2022/06/17 06:31:16;;;;;;;26.88;17.70;;;512.60;2380.80;;;;;;5072301;28;20029;-75
2022/06/17 06:33:41;;;;;;;16.38;8.65;;;512.70;2380.80;;;;;;5069197;28;20115;-76
2022/06/17 06:36:07;;;;;;;15.60;9.88;;;512.80;2380.80;;;;;;5070745;28;20178;-74
2022/06/17 06:38:33;;;;;;;21.38;14.38;;;537.60;2406.40;;;;;;5070641;28;20158;-75
2022/06/17 06:40:59;;;;;;;20.25;11.27;;;537.60;2406.40;;;;;;5074415;28;20052;-76
2022/06/17 06:43:25;;;;;;;16.40;10.40;;;512.90;2380.80;;;;;;5069144;28;20035;-75
2022/06/17 06:45:52;;;;;;;14.90;10.30;;;537.70;2406.40;;;;;;5071567;28;20025;-75
2022/06/17 06:48:22;;;;;;;18.08;12.93;;;537.80;2406.40;;;;;;5078163;28;20025;-77
2022/06/17 06:50:48;;;;;;;27.75;16.95;;;537.90;2406.40;;;;;;5073557;28;20403;-77
2022/06/17 06:53:14;;;;;;;22.92;11.65;;;538.10;2406.40;;;;;;5083044;28;20035;-77
2022/06/17 06:55:40;;;;;;;41.38;22.90;;;538.20;2406.40;;;;;;5084614;28;20024;-79
2022/06/17 06:58:13;;;;;;;30.90;20.25;;;538.30;2406.40;;;;;;5081732;28;20020;-77
2022/06/17 07:00:44;;;;;;;27.05;11.82;;;563.20;2432.00;;;;;;5079574;28;20034;-79
2022/06/17 07:03:11;;;;;;;21.30;11.93;;;563.20;2432.00;;;;;;5082307;28;20077;-76
2022/06/17 07:05:41;;;;;;;19.48;11.73;;;563.20;2432.00;;;;;;5082413;28;20029;-79
2022/06/17 07:08:09;;;;;;;29.95;17.33;;;563.20;2432.00;;;;;;5074335;28;20482;-76
2022/06/17 07:10:35;;;;;;;35.80;19.27;;;563.40;2432.00;;;;;;5079919;28;20013;-76
2022/06/17 07:13:02;;;;;;;24.90;12.82;;;563.30;2432.00;;;;;;5068131;28;20095;-75
2022/06/17 07:15:29;;;;;;;31.45;16.05;;;563.30;2432.00;;;;;;5070272;28;20029;-76
2022/06/17 07:17:57;;;;;;;27.35;16.92;;;563.40;2432.00;;;;;;5072442;28;20506;-75
2022/06/17 07:20:24;;;;;;;37.40;16.73;;;563.60;2432.00;;;;;;5073940;28;20063;-76
2022/06/17 07:22:51;;;;;;;35.78;21.98;;;563.80;2432.00;;;;;;5070888;28;20107;-75
2022/06/17 07:25:18;;;;;;;37.85;18.10;;;564.10;2432.00;;;;;;5068188;28;20012;-77
2022/06/17 07:27:43;;;;;;;24.88;14.18;;;588.90;2432.00;;;;;;5074166;28;20024;-76
2022/06/17 07:30:17;;;;;;;27.90;16.15;;;589.00;2432.00;;;;;;5070699;28;20028;-78
2022/06/17 07:32:43;;;;;;;33.40;16.95;;;589.20;2432.00;;;;;;5071291;28;20032;-77
2022/06/17 07:35:10;;;;;;;32.47;16.80;;;589.20;2432.00;;;;;;5070506;28;20028;-77
2022/06/17 07:40:20;;;;;;;32.78;16.17;;;589.50;2355.20;;;;;;5072591;28;20410;-76
2022/06/17 07:42:46;;;;;;;33.35;18.38;;;589.60;2278.40;;;;;;5071676;28;20020;-77
2022/06/17 07:45:15;;;;;;;29.95;18.08;;;589.70;2304.00;;;;;;5069056;28;20033;-75
2022/06/17 07:47:42;;;;;;;43.90;29.25;;;614.60;2278.40;;;;;;5069281;28;20017;-76
2022/06/17 07:50:13;;;;;;;13.38;8.07;;;614.80;2124.80;;;;;;5070453;28;20031;-76
2022/06/17 07:52:39;;;;;;;14.15;7.30;;;614.90;2073.60;;;;;;5069669;28;20024;-78
2022/06/17 07:55:06;;;;;;;19.73;12.25;;;;;;;;;;5072531;28;20025;-76
2022/06/17 07:57:32;;;;;;;12.15;7.63;;;;;;;;;;5070991;28;20422;-77
2022/06/17 07:59:58;;;;;;;23.75;18.33;;;640.10;1945.60;;;;;;5068667;28;20060;-77
2022/06/17 08:02:24;;;;;;;10.02;6.72;;;;;;;;;;5072650;28;20027;-79
2022/06/17 08:04:59;;;;;;;69.00;50.47;;;;;;;;;;5070403;28;20082;-77
2022/06/17 08:07:25;;;;;;;27.25;18.38;;;;;;;;;;5049118;28;20032;-76
2022/06/17 08:09:51;;;;;;;29.25;22.58;;;;;;;;;;5059319;28;20028;-76
2022/06/17 08:12:17;;;;;;;33.88;25.42;;;;;;;;;;5065270;28;20075;-78
2022/06/17 08:14:43;;;;;;;7.85;6.32;;;;;;;;;;5055223;28;20028;-77
2022/06/17 08:17:17;;;;;;;16.73;10.70;;;;;;;;;;5054371;28;20025;-77
2022/06/17 08:19:43;;;;;;;15.07;6.40;;;;;;;;;;5054725;28;20033;-77
2022/06/17 08:22:10;;;;;;;12.38;7.53;;;;;;;;;;5054580;28;20471;-78
2022/06/17 08:24:36;;;;;;;25.00;16.92;;;;;;;;;;5062229;28;20082;-76
2022/06/17 08:27:03;;;;;;;12.40;9.75;;;;;;;;;;5054108;28;20079;-75
2022/06/17 08:29:30;;;;;;;70.68;60.35;;;;;;;;;;5053567;28;20071;-77
2022/06/17 08:32:45;;;;;;;17.17;10.27;;;;;;;;;;5053637;28;20025;-75
2022/06/17 08:34:42;;;;;;;14.52;9.98;;;;;;;;;;5052339;28;20135;-74
2022/06/17 08:37:08;;;;;;;50.33;33.60;;;;;;;;;;5052930;28;20053;-76
2022/06/17 08:39:34;;;;;;;38.08;31.13;;;;;;;;;;5053046;28;20041;-76
2022/06/17 08:42:10;;;;;;;13.68;9.25;;;;;;;;;;5054632;28;20036;-76
2022/06/17 08:44:54;;;;;;;13.32;10.07;;;;;;;;;;5054848;28;20047;-76
2022/06/17 08:47:19;;;;;;;;;;;;;;;;;;5043439;28;20067;-74
2022/06/17 08:49:48;;;;;;;32.58;22.73;;;;;;;;;;5054728;28;19948;-75
2022/06/17 08:52:21;;;;;;;99.43;86.70;;;;;;;;;;5060029;28;20074;-76
2022/06/17 08:55:05;;;;;;;40.88;30.65;;;;;;;;;;5060985;28;20029;-75
2022/06/17 08:57:49;;;;;;;59.55;51.22;;;;;;;;;;5042379;28;20048;-75
2022/06/17 09:00:19;;;;;;;9.45;7.45;;;;;;;;;;5052816;28;20392;-75
2022/06/17 09:03:05;;;;;;;11.70;7.80;;;;;;;;;;5054293;28;20025;-77
2022/06/17 09:05:31;;;;;;;49.22;27.23;;;;;;;;;;5054329;28;20017;-75
2022/06/17 09:08:06;;;;;;;27.70;23.85;;;;;;;;;;5053917;28;20063;-75
2022/06/17 09:10:35;;;;;;;25.33;20.92;;;;;;;;;;5051524;28;20124;-75
2022/06/17 09:13:18;;;;;;;9.95;6.80;;;;;;;;;;5051371;28;20379;-75
2022/06/17 09:15:44;;;;;;;11.27;7.57;;;;;;;;;;5052072;28;20021;-76
2022/06/17 09:18:13;;;;;;;16.60;11.95;;;;;;;;;;5053996;28;20060;-75
2022/06/17 09:20:41;;;;;;;34.25;28.73;;;;;;;;;;5053396;28;20052;-75
2022/06/17 09:23:11;;;;;;;8.35;6.82;;;;;;;;;;5053617;28;20507;-76
2022/06/17 09:25:42;;;;;;;8.43;6.90;;;;;;;;;;5053908;28;20157;-76
2022/06/17 09:28:11;;;;;;;12.38;10.75;;;;;;;;;;5053876;28;20108;-75
2022/06/17 09:30:42;;;;;;;12.55;7.85;;;;;;;;;;5052823;28;20013;-76
2022/06/17 09:33:31;;;;;;;13.43;7.13;;;;;;;;;;5053777;28;20158;-76
2022/06/17 09:36:00;;;;;;;10.82;8.55;;;;;;;;;;5056686;28;20106;-75
2022/06/17 09:38:37;;;;;;;9.13;6.65;;;692.00;1664.00;;;;;;5053154;28;20021;-75
2022/06/17 09:41:37;;;;;;;12.00;7.88;;;691.70;1689.60;;;;;;5064252;28;20471;-75
2022/06/17 09:44:23;;;;;;;14.38;8.32;;;691.70;1689.60;;;;;;5039600;28;20091;-75
2022/06/17 09:47:17;;;;;;;8.63;6.10;;;691.70;1715.20;;;;;;5051740;28;20029;-75
2022/06/17 09:49:56;;;;;;;10.27;6.78;;;691.50;1740.80;;;;;;5053091;28;20035;-76
2022/06/17 09:52:38;;;;;;;12.75;7.57;;;691.40;1766.40;;;;;;5039649;28;20028;-76
2022/06/17 09:55:17;;;;;;;11.40;6.75;;;691.30;1766.40;;;;;;5053064;28;20020;-77
2022/06/17 09:57:52;;;;;;;15.20;9.07;;;691.20;1792.00;;;;;;5052714;28;20472;-75
2022/06/17 10:00:22;;;;;;;9.77;7.55;;;691.30;1792.00;;;;;;5052020;28;20383;-75
2022/06/17 10:02:57;;;;;;;12.77;9.35;;;691.60;1740.80;;;;;;5052994;28;20024;-76
2022/06/17 10:05:45;;;;;;;11.30;9.57;;;691.70;1817.60;;;;;;5052126;28;20495;-76
2022/06/17 10:08:16;;;;;;;14.30;11.35;;;691.40;1868.80;;;;;;5052916;28;20456;-77
2022/06/17 10:11:04;;;;;;;11.85;9.32;;;691.40;1868.80;;;;;;5052864;28;20502;-75
2022/06/17 10:14:00;;;;;;;19.80;13.60;;;666.40;1920.00;;;;;;5067317;28;20033;-76
2022/06/17 10:20:06;;;;;;;12.80;10.50;;;666.00;2124.80;;;;;;5052601;28;20040;-75
2022/06/17 10:23:04;;;;;;;14.15;11.40;;;665.70;1920.00;;;;;;5051427;28;20033;-77
2022/06/17 10:25:58;;;;;;;13.73;11.90;;;665.70;1971.20;;;;;;5039641;28;20025;-75
2022/06/17 10:28:46;;;;;;;13.07;11.55;;;665.70;2022.40;;;;;;5048530;28;20048;-76
2022/06/17 10:31:36;;;;;;;13.15;11.85;;;665.80;2022.40;;;;;;5064550;28;20017;-76
2022/06/17 10:34:10;;;;;;;16.35;12.23;;;665.60;2099.20;;;;;;5031732;28;20535;-76
2022/06/17 10:36:36;;;;;;;12.32;10.27;;;665.60;2150.40;;;;;;5052514;28;20037;-76
2022/06/17 10:39:03;;;;;;;19.65;8.90;;;665.60;2099.20;;;;;;5051416;28;20118;-75
2022/06/17 10:41:30;;;;;;;11.10;9.93;;;640.70;2150.40;;;;;;5052935;28;20053;-76
2022/06/17 10:43:56;;;;;;;14.52;9.35;;;640.60;2201.60;;;;;;5060959;28;20016;-76
2022/06/17 10:46:26;;;;;;;13.63;10.48;;;640.50;2252.80;;;;;;5056876;28;20029;-75
2022/06/17 10:48:58;;;;;;;11.13;9.40;;;640.50;2278.40;;;;;;5052867;28;20017;-75
2022/06/17 10:51:26;;;;;;;13.35;8.20;;;640.50;2176.00;;;;;;5052854;28;20453;-75
2022/06/17 10:54:00;;;;;;;10.32;7.82;;;640.50;2099.20;;;;;;5052320;28;20176;-77
2022/06/17 10:56:40;;;;;;;11.25;7.88;;;640.40;2099.20;;;;;;5057303;28;20051;-77
2022/06/17 10:59:10;;;;;;;11.13;8.25;;;640.30;2150.40;;;;;;5063407;28;20415;-76
2022/06/17 11:01:48;;;;;;;14.80;9.18;;;640.20;2252.80;;;;;;5062877;28;20021;-76
2022/06/17 11:04:23;;;;;;;9.52;7.57;;;640.10;2329.60;;;;;;5076304;28;20037;-76
2022/06/17 11:06:54;;;;;;;14.55;9.65;;;640.20;2304.00;;;;;;5051849;28;20070;-78
2022/06/17 11:09:25;;;;;;;10.88;9.40;;;640.10;2355.20;;;;;;5065988;28;20024;-77
2022/06/17 11:12:06;;;;;;;13.25;9.00;;;640.10;2355.20;;;;;;5052208;28;20460;-76
2022/06/17 11:14:46;;;;;;;19.23;14.00;;;640.30;2355.20;;;;;;5057076;28;20438;-78
2022/06/17 11:17:20;;;;;;;14.32;12.73;;;640.30;2432.00;;;;;;5054214;28;20107;-79
2022/06/17 11:19:52;;;;;;;20.02;14.52;;;640.20;2432.00;;;;;;5056888;28;20116;-77
2022/06/17 11:22:35;;;;;;;16.58;14.73;;;640.10;2432.00;;;;;;5051730;28;20094;-78
2022/06/17 11:25:19;;;;;;;15.25;13.85;;;640.00;2432.00;;;;;;5051996;28;20103;-78
2022/06/17 11:27:55;;;;;;;16.42;14.75;;;615.30;2432.00;;;;;;5039944;28;20043;-77
2022/06/17 11:30:25;;;;;;;16.92;13.10;;;615.30;2432.00;;;;;;5064760;28;20422;-77
2022/06/17 11:32:51;;;;;;;19.63;11.82;;;640.00;2432.00;;;;;;5052150;28;20028;-77
2022/06/17 11:35:23;;;;;;;13.63;12.35;;;640.00;2432.00;;;;;;5058691;28;20024;-76
2022/06/17 11:37:51;;;;;;;13.35;11.95;;;615.30;2432.00;;;;;;5071782;28;20024;-78
2022/06/17 11:40:26;;;;;;;22.23;14.02;;;615.20;2432.00;;;;;;5037957;28;20041;-78
2022/06/17 11:42:58;;;;;;;20.25;15.77;;;615.20;2432.00;;;;;;5051016;28;20068;-77
2022/06/17 11:45:29;;;;;;;16.83;12.05;;;615.20;2432.00;;;;;;5038069;28;20104;-76
2022/06/17 11:48:01;;;;;;;12.43;11.15;;;640.10;2432.00;;;;;;5051504;28;20035;-77
2022/06/17 11:50:34;;;;;;;14.80;11.45;;;640.20;2432.00;;;;;;5057448;28;20021;-77
2022/06/17 11:53:14;;;;;;;15.63;11.50;;;640.40;2432.00;;;;;;5058247;28;20395;-76
2022/06/17 11:55:46;;;;;;;15.32;11.88;;;640.30;2432.00;;;;;;5051600;28;20037;-77
2022/06/17 11:58:14;;;;;;;14.23;9.40;;;640.70;2432.00;;;;;;5050373;28;20021;-78
2022/06/17 12:00:55;;;;;;;11.35;10.20;;;640.70;2432.00;;;;;;5062304;28;20426;-79
2022/06/17 12:03:32;;;;;;;12.13;10.18;;;640.60;2432.00;;;;;;5062534;28;20452;-80
2022/06/17 12:06:00;;;;;;;13.10;11.25;;;640.60;2432.00;;;;;;5066983;28;20032;-78
2022/06/17 12:08:39;;;;;;;12.73;10.30;;;640.50;2432.00;;;;;;5060806;28;20029;-78
2022/06/17 12:11:10;;;;;;;14.15;10.18;;;640.40;2432.00;;;;;;5057444;28;20116;-78
2022/06/17 12:13:41;;;;;;;11.88;10.55;;;640.30;2432.00;;;;;;5070176;28;20024;-78
2022/06/17 12:16:19;;;;;;;12.95;10.43;;;640.20;2432.00;;;;;;5066165;28;20530;-79
2022/06/17 12:18:54;;;;;;;11.35;9.50;;;640.10;2432.00;;;;;;5050452;28;20041;-78
2022/06/17 12:21:25;;;;;;;12.68;10.40;;;640.10;2432.00;;;;;;5065120;28;20028;-77
2022/06/17 12:23:54;;;;;;;12.10;10.30;;;640.30;2432.00;;;;;;5051355;28;20029;-77
2022/06/17 12:26:45;;;;;;;19.20;15.40;;;640.40;2432.00;;;;;;5051013;28;20020;-79
2022/06/17 12:29:44;;;;;;;18.33;15.88;;;640.20;2432.00;;;;;;5049801;28;20033;-76
2022/06/17 12:32:32;;;;;;;17.58;11.98;;;;;;;;;;5041683;28;20044;-76
2022/06/17 12:35:17;;;;;;;17.10;11.00;;;640.00;2432.00;;;;;;5053420;28;20033;-77
2022/06/17 12:38:29;;;;;;;13.20;10.02;;;640.00;2432.00;;;;;;5056714;28;20076;-77
2022/06/17 12:41:06;;;;;;;12.30;10.20;;;615.30;2432.00;;;;;;5038415;28;20142;-77
2022/06/17 12:43:46;;;;;;;13.20;10.68;;;615.20;2432.00;;;;;;5063197;28;20494;-77
2022/06/17 12:46:20;;;;;;;11.95;9.85;;;615.30;2432.00;;;;;;5048492;28;20036;-77
2022/06/17 12:48:53;;;;;;;11.27;10.15;;;;;;;;;;5055739;28;20472;-76
2022/06/17 12:54:28;;;;;;;12.98;9.40;;;640.30;2432.00;;;;;;5048331;28;20082;-76
2022/06/17 12:57:12;;;;;;;11.07;9.88;;;640.50;2380.80;;;;;;5056381;28;20040;-77
2022/06/17 12:59:53;;;;;;;11.55;10.07;;;640.80;2355.20;;;;;;5065545;28;20036;-78
2022/06/17 13:02:56;;;;;;;18.65;12.00;;;665.60;2278.40;;;;;;5053656;28;20025;-77